Time;durP1;ratioP1;P1;durP2;ratioP2;P2;SDS_P1;SDS_P2;PMS_P1;PMS_P2;Temp;Humidity;BMP_temperature;BMP_pressure;BME280_temperature;BME280_humidity;BME280_pressure;Samples;Min_cycle;Max_cycle;Signal;HPM_P1;HPM_P2
2021/10/03 00:01:18;;;;;;;45.08;29.20;;;9.20;91.60;;;;;;5076631;28;20040;-76
2021/10/03 00:03:47;;;;;;;41.13;27.10;;;9.20;92.10;;;;;;5075436;28;20029;-74
2021/10/03 00:06:15;;;;;;;38.95;25.98;;;9.10;92.50;;;;;;5094415;28;20031;-76
2021/10/03 00:08:41;;;;;;;42.58;31.33;;;9.10;92.90;;;;;;5059360;28;20037;-76
2021/10/03 00:11:07;;;;;;;62.25;41.72;;;9.10;92.70;;;;;;5074241;28;20074;-75
2021/10/03 00:13:33;;;;;;;47.08;29.77;;;9.10;91.50;;;;;;5056246;28;20035;-75
2021/10/03 00:16:00;;;;;;;52.33;33.85;;;9.00;92.20;;;;;;5074186;28;20020;-75
2021/10/03 00:18:27;;;;;;;64.50;42.30;;;9.00;92.20;;;;;;5074263;28;20036;-76
2021/10/03 00:20:54;;;;;;;60.25;37.47;;;8.90;91.30;;;;;;5056489;28;20024;-75
2021/10/03 00:23:21;;;;;;;56.42;36.10;;;8.90;91.70;;;;;;5074360;28;20104;-74
2021/10/03 00:25:48;;;;;;;68.95;41.35;;;8.80;92.20;;;;;;5073987;28;20025;-76
2021/10/03 00:28:14;;;;;;;70.55;39.65;;;8.80;92.20;;;;;;5055970;28;20467;-76
2021/10/03 00:30:42;;;;;;;81.72;49.25;;;8.70;92.70;;;;;;5073966;28;20042;-76
2021/10/03 00:33:08;;;;;;;56.28;34.10;;;8.70;91.30;;;;;;5074398;28;20035;-75
2021/10/03 00:35:35;;;;;;;56.13;35.40;;;8.60;91.70;;;;;;5056021;28;20028;-76
2021/10/03 00:38:04;;;;;;;45.80;29.67;;;8.50;92.00;;;;;;5055824;28;20029;-74
2021/10/03 00:40:32;;;;;;;45.83;30.38;;;8.40;92.90;;;;;;5041518;28;20391;-75
2021/10/03 00:43:02;;;;;;;57.10;37.58;;;8.40;93.10;;;;;;5053500;28;20025;-76
2021/10/03 00:45:30;;;;;;;45.75;30.95;;;8.30;93.10;;;;;;5053742;28;20371;-76
2021/10/03 00:47:56;;;;;;;61.83;40.63;;;8.30;93.90;;;;;;5052814;28;20033;-75
2021/10/03 00:50:23;;;;;;;57.80;34.50;;;8.30;93.60;;;;;;5053684;28;20049;-77
2021/10/03 00:52:49;;;;;;;53.60;34.42;;;8.30;94.90;;;;;;5035834;28;20051;-76
2021/10/03 00:55:17;;;;;;;42.95;29.77;;;8.30;95.50;;;;;;5035809;28;20467;-79
2021/10/03 00:57:45;;;;;;;39.65;26.42;;;8.40;96.00;;;;;;5035525;28;20075;-76
2021/10/03 01:00:13;;;;;;;52.30;35.70;;;8.40;96.40;;;;;;5054149;28;20410;-75
2021/10/03 01:02:40;;;;;;;46.13;32.42;;;8.40;95.60;;;;;;5068998;28;20112;-74
2021/10/03 01:05:08;;;;;;;39.80;27.88;;;8.40;95.50;;;;;;5035630;28;20029;-76
2021/10/03 01:07:35;;;;;;;42.15;29.67;;;8.40;96.00;;;;;;5035460;28;20071;-76
2021/10/03 01:10:03;;;;;;;45.53;29.73;;;8.40;97.50;;;;;;5035430;28;20057;-77
2021/10/03 01:12:29;;;;;;;41.17;27.25;;;8.40;98.70;;;;;;5035624;28;20027;-77
2021/10/03 01:14:55;;;;;;;44.47;29.08;;;8.50;99.00;;;;;;5053266;28;20028;-76
2021/10/03 01:17:21;;;;;;;42.83;29.35;;;8.60;98.90;;;;;;5035452;28;20079;-76
2021/10/03 01:19:47;;;;;;;44.28;29.17;;;8.60;98.50;;;;;;5053482;28;20055;-76
2021/10/03 01:22:13;;;;;;;54.17;33.22;;;8.70;98.40;;;;;;5053341;28;20090;-76
2021/10/03 01:24:39;;;;;;;45.15;29.92;;;8.70;98.10;;;;;;5035533;28;20448;-75
2021/10/03 01:27:05;;;;;;;44.45;29.80;;;8.70;97.90;;;;;;5034734;28;20032;-74
2021/10/03 01:29:32;;;;;;;48.30;30.08;;;8.70;97.80;;;;;;5035599;28;20032;-76
2021/10/03 01:31:57;;;;;;;45.33;29.42;;;8.70;97.90;;;;;;5072915;28;20025;-76
2021/10/03 01:34:23;;;;;;;48.03;28.75;;;8.70;97.60;;;;;;5055217;28;20035;-75
2021/10/03 01:36:49;;;;;;;46.38;31.27;;;8.70;97.70;;;;;;5055388;28;20116;-76
2021/10/03 01:39:15;;;;;;;43.70;29.85;;;8.70;97.10;;;;;;5055103;28;20479;-76
2021/10/03 01:41:41;;;;;;;44.63;29.13;;;8.60;97.30;;;;;;5055332;28;20032;-76
2021/10/03 01:44:07;;;;;;;46.22;31.05;;;8.60;97.60;;;;;;5055285;28;20525;-76
2021/10/03 01:46:32;;;;;;;48.60;29.30;;;8.60;97.60;;;;;;5073837;28;20037;-76
2021/10/03 01:48:58;;;;;;;68.60;45.35;;;8.60;97.40;;;;;;5055002;28;20029;-75
2021/10/03 01:51:25;;;;;;;43.25;30.17;;;8.50;94.50;;;;;;5073564;28;20087;-73
2021/10/03 01:53:58;;;;;;;45.40;31.33;;;8.40;95.20;;;;;;5073014;28;20070;-75
2021/10/03 01:56:25;;;;;;;52.53;34.92;;;8.40;95.50;;;;;;5082384;28;20047;-76
2021/10/03 01:59:03;;;;;;;56.75;39.75;;;8.30;95.30;;;;;;5058901;28;20024;-75
2021/10/03 02:01:43;;;;;;;55.35;39.63;;;8.30;94.20;;;;;;5059095;28;20164;-76
2021/10/03 02:04:25;;;;;;;47.65;32.13;;;8.20;93.70;;;;;;5076680;28;20043;-76
2021/10/03 02:06:52;;;;;;;48.08;32.65;;;8.20;94.70;;;;;;5058542;28;20051;-75
2021/10/03 02:09:22;;;;;;;45.95;31.58;;;8.10;94.90;;;;;;5058729;28;20033;-76
2021/10/03 02:11:53;;;;;;;44.33;31.65;;;8.10;96.00;;;;;;5058640;28;20029;-76
2021/10/03 02:14:21;;;;;;;43.58;29.67;;;8.10;95.40;;;;;;5058571;28;20056;-75
2021/10/03 02:16:47;;;;;;;46.05;30.83;;;8.00;96.40;;;;;;5058274;28;20118;-76
2021/10/03 02:19:13;;;;;;;47.03;30.00;;;8.10;96.20;;;;;;5058210;28;20083;-76
2021/10/03 02:21:40;;;;;;;39.67;27.25;;;8.00;95.80;;;;;;5058612;28;20028;-75
2021/10/03 02:24:06;;;;;;;43.40;29.00;;;8.00;96.50;;;;;;5076289;28;20416;-73
2021/10/03 02:26:33;;;;;;;43.28;30.73;;;8.00;97.40;;;;;;5076171;28;20028;-76
2021/10/03 02:28:59;;;;;;;40.80;28.77;;;8.10;97.40;;;;;;5053410;28;20071;-75
2021/10/03 02:31:25;;;;;;;45.67;33.40;;;8.10;97.30;;;;;;5056056;28;20036;-76
2021/10/03 02:33:52;;;;;;;45.65;29.95;;;8.00;97.00;;;;;;5054948;28;20384;-76
2021/10/03 02:36:21;;;;;;;45.28;30.52;;;8.00;97.60;;;;;;5054823;28;20029;-74
2021/10/03 02:38:47;;;;;;;42.92;30.40;;;8.00;97.70;;;;;;5038491;28;20111;-75
2021/10/03 02:41:13;;;;;;;44.75;31.77;;;8.00;97.20;;;;;;5056011;28;20529;-75
2021/10/03 02:43:42;;;;;;;53.13;37.42;;;7.90;96.40;;;;;;5054945;28;20467;-76
2021/10/03 02:46:08;;;;;;;57.58;39.58;;;7.70;93.30;;;;;;5037870;28;20021;-76
2021/10/03 02:48:36;;;;;;;55.58;38.67;;;7.50;91.60;;;;;;5054862;28;20043;-76
2021/10/03 02:51:02;;;;;;;60.13;38.90;;;7.20;91.30;;;;;;5055241;28;20353;-75
2021/10/03 02:53:28;;;;;;;57.75;37.72;;;7.10;91.20;;;;;;5058152;28;20063;-76
2021/10/03 02:55:54;;;;;;;61.25;39.90;;;7.00;91.60;;;;;;5058063;28;20519;-76
2021/10/03 02:58:21;;;;;;;62.25;40.97;;;6.80;90.80;;;;;;5075652;28;20071;-75
2021/10/03 03:00:51;;;;;;;64.13;44.65;;;6.70;90.50;;;;;;5075501;28;20036;-75
2021/10/03 03:03:17;;;;;;;60.63;42.30;;;6.50;90.50;;;;;;5057670;28;20025;-75
2021/10/03 03:05:42;;;;;;;60.28;40.53;;;6.40;91.00;;;;;;5057705;28;20122;-73
2021/10/03 03:08:08;;;;;;;77.88;44.83;;;6.30;91.60;;;;;;5065006;28;20512;-75
2021/10/03 03:10:35;;;;;;;63.13;42.53;;;6.20;91.90;;;;;;5095697;28;20058;-75
2021/10/03 03:13:01;;;;;;;46.67;34.72;;;6.20;92.00;;;;;;5077381;28;20085;-75
2021/10/03 03:15:27;;;;;;;64.07;44.92;;;6.20;93.80;;;;;;5077633;28;20020;-75
2021/10/03 03:17:52;;;;;;;73.07;45.47;;;6.20;92.80;;;;;;5095489;28;20481;-76
2021/10/03 03:20:19;;;;;;;67.22;42.25;;;6.20;92.20;;;;;;5095788;28;20034;-74
2021/10/03 03:22:44;;;;;;;53.55;35.17;;;6.20;93.10;;;;;;5077005;28;20031;-76
2021/10/03 03:25:13;;;;;;;81.47;48.13;;;6.20;93.70;;;;;;5095478;28;20107;-75
2021/10/03 03:27:39;;;;;;;62.05;42.35;;;6.30;92.40;;;;;;5095182;28;20063;-75
2021/10/03 03:30:07;;;;;;;46.05;34.78;;;6.30;92.20;;;;;;5095059;28;20031;-76
2021/10/03 03:32:33;;;;;;;50.90;34.65;;;6.40;94.10;;;;;;5077128;28;20488;-76
2021/10/03 03:34:59;;;;;;;37.05;26.33;;;6.40;95.10;;;;;;5077259;28;20051;-74
2021/10/03 03:37:25;;;;;;;35.22;25.20;;;6.50;96.30;;;;;;5076986;28;20039;-69
2021/10/03 03:39:50;;;;;;;30.65;22.00;;;6.60;96.70;;;;;;5076781;28;20119;-71
2021/10/03 03:42:16;;;;;;;37.65;25.48;;;6.70;98.10;;;;;;5076962;28;20020;-71
2021/10/03 03:44:42;;;;;;;45.88;32.30;;;6.80;98.00;;;;;;5076972;28;20063;-71
2021/10/03 03:47:08;;;;;;;45.72;31.08;;;6.90;96.70;;;;;;5076728;28;20027;-71
2021/10/03 03:49:33;;;;;;;36.85;26.52;;;6.90;96.20;;;;;;5076772;28;20031;-71
2021/10/03 03:51:59;;;;;;;34.80;25.15;;;6.90;96.40;;;;;;5095113;28;20028;-71
2021/10/03 03:54:25;;;;;;;35.67;25.13;;;6.90;97.30;;;;;;5095222;28;20482;-71
2021/10/03 03:56:51;;;;;;;37.60;28.10;;;7.00;98.90;;;;;;5078610;28;20033;-74
2021/10/03 03:59:16;;;;;;;40.92;29.00;;;7.10;99.20;;;;;;5056043;28;20445;-71
2021/10/03 04:01:42;;;;;;;46.30;31.25;;;7.20;99.00;;;;;;5074314;28;20386;-71
2021/10/03 04:04:09;;;;;;;46.30;32.45;;;7.20;97.80;;;;;;5056790;28;20131;-71
2021/10/03 04:06:35;;;;;;;47.85;32.83;;;7.20;96.80;;;;;;5074181;28;20048;-71
2021/10/03 04:09:01;;;;;;;59.33;41.63;;;7.20;96.80;;;;;;5074153;28;20130;-71
2021/10/03 04:11:26;;;;;;;59.50;41.53;;;7.10;94.00;;;;;;5056246;28;20024;-71
2021/10/03 04:13:52;;;;;;;63.88;42.80;;;7.00;93.40;;;;;;5056418;28;20028;-71
2021/10/03 04:16:18;;;;;;;58.08;39.35;;;7.00;92.80;;;;;;5072209;28;20132;-73
2021/10/03 04:18:43;;;;;;;58.47;40.88;;;7.10;92.40;;;;;;5055742;28;20109;-72
2021/10/03 04:21:09;;;;;;;57.70;39.80;;;7.20;92.50;;;;;;5056303;28;20031;-72
2021/10/03 04:23:35;;;;;;;55.88;40.05;;;7.40;92.20;;;;;;5074308;28;20112;-73
2021/10/03 04:26:00;;;;;;;57.55;38.10;;;7.80;92.00;;;;;;5073887;28;20051;-72
2021/10/03 04:28:26;;;;;;;61.17;41.03;;;8.10;90.70;;;;;;5078269;28;20016;-72
2021/10/03 04:30:53;;;;;;;55.75;38.03;;;8.40;90.20;;;;;;5075649;28;20041;-72
2021/10/03 04:33:18;;;;;;;53.60;37.00;;;8.80;87.80;;;;;;5094150;28;20043;-72
2021/10/03 04:35:44;;;;;;;61.17;38.63;;;9.10;85.60;;;;;;5094339;28;20101;-72
2021/10/03 04:38:09;;;;;;;53.78;34.33;;;9.40;83.40;;;;;;5075816;28;20036;-72
2021/10/03 04:40:35;;;;;;;55.90;38.53;;;9.80;82.60;;;;;;5094123;28;20059;-72
2021/10/03 04:43:02;;;;;;;51.55;32.92;;;10.20;81.00;;;;;;5093121;28;20024;-72
2021/10/03 04:45:28;;;;;;;61.67;40.08;;;10.60;80.10;;;;;;5094064;28;20363;-72
2021/10/03 04:47:53;;;;;;;39.83;26.58;;;11.10;77.80;;;;;;5094051;28;20027;-70
2021/10/03 04:50:19;;;;;;;40.58;28.23;;;11.50;77.40;;;;;;5094473;28;20028;-71
2021/10/03 04:52:45;;;;;;;66.78;37.10;;;11.90;76.30;;;;;;5093712;28;20505;-72
2021/10/03 04:55:11;;;;;;;33.55;20.48;;;12.30;73.90;;;;;;5094207;28;20481;-72
2021/10/03 04:57:37;;;;;;;40.25;27.40;;;12.70;73.00;;;;;;5075598;28;20035;-71
2021/10/03 05:00:05;;;;;;;44.78;28.90;;;13.00;72.10;;;;;;5093925;28;20032;-71
2021/10/03 05:02:31;;;;;;;29.15;18.17;;;13.50;70.70;;;;;;5073708;28;20386;-72
2021/10/03 05:04:56;;;;;;;33.08;21.55;;;13.80;70.00;;;;;;5073647;28;20094;-71
2021/10/03 05:07:23;;;;;;;52.60;33.28;;;14.30;69.20;;;;;;5073744;28;20055;-71
2021/10/03 05:09:48;;;;;;;54.03;33.88;;;14.60;67.40;;;;;;5055253;28;20107;-72
2021/10/03 05:12:14;;;;;;;35.65;24.92;;;15.00;65.90;;;;;;5073302;28;20462;-73
2021/10/03 05:14:39;;;;;;;40.80;30.30;;;15.30;65.40;;;;;;5073995;28;20054;-72
2021/10/03 05:17:05;;;;;;;47.70;31.48;;;15.70;64.30;;;;;;5073149;28;20039;-72
2021/10/03 05:19:31;;;;;;;42.55;29.55;;;16.10;63.40;;;;;;5073503;28;20031;-72
2021/10/03 05:21:56;;;;;;;46.90;31.95;;;16.40;62.40;;;;;;5073145;28;20032;-72
2021/10/03 05:24:22;;;;;;;51.30;31.90;;;16.70;61.30;;;;;;5072426;28;20394;-81
2021/10/03 05:26:48;;;;;;;49.17;33.30;;;16.90;60.50;;;;;;5053695;28;20029;-83
2021/10/03 05:29:14;;;;;;;38.47;26.05;;;17.20;60.00;;;;;;5056547;28;20025;-81
2021/10/03 05:31:39;;;;;;;46.25;30.67;;;17.30;60.20;;;;;;5056648;28;20028;-82
2021/10/03 05:34:05;;;;;;;40.88;26.67;;;17.60;59.60;;;;;;5057920;28;20070;-82
2021/10/03 05:36:31;;;;;;;46.30;28.80;;;18.00;59.50;;;;;;5059119;28;20025;-82
2021/10/03 05:39:00;;;;;;;40.80;26.63;;;18.40;59.00;;;;;;5077257;28;20104;-82
2021/10/03 05:41:26;;;;;;;37.75;23.95;;;18.70;58.50;;;;;;5077260;28;20016;-83
2021/10/03 05:43:52;;;;;;;28.92;21.75;;;19.00;58.00;;;;;;5077373;28;20025;-82
2021/10/03 05:46:18;;;;;;;30.48;20.83;;;19.30;57.50;;;;;;5059140;28;20051;-82
2021/10/03 05:48:44;;;;;;;21.13;15.77;;;19.40;57.20;;;;;;5076014;28;20024;-83
2021/10/03 05:51:10;;;;;;;24.08;17.17;;;19.60;56.70;;;;;;5058733;28;20390;-82
2021/10/03 05:53:35;;;;;;;24.98;20.52;;;19.90;56.40;;;;;;5058787;28;20486;-81
2021/10/03 05:56:02;;;;;;;37.70;25.85;;;20.10;55.80;;;;;;5058659;28;20074;-81
2021/10/03 05:58:28;;;;;;;15.40;10.85;;;20.30;55.50;;;;;;5059041;28;20068;-82
2021/10/03 06:00:54;;;;;;;16.35;10.05;;;20.40;54.90;;;;;;5076926;28;20455;-82
2021/10/03 06:03:20;;;;;;;13.38;9.70;;;20.40;54.90;;;;;;5056921;28;20030;-83
2021/10/03 06:05:46;;;;;;;15.02;11.23;;;20.40;54.60;;;;;;5058694;28;20028;-83
2021/10/03 06:08:15;;;;;;;18.27;14.75;;;20.60;54.40;;;;;;5058384;28;20053;-83
2021/10/03 06:10:41;;;;;;;11.50;8.70;;;20.60;54.40;;;;;;5058721;28;20029;-83
2021/10/03 06:13:07;;;;;;;14.18;10.07;;;20.80;54.40;;;;;;5076448;28;20060;-83
2021/10/03 06:15:34;;;;;;;14.00;8.85;;;20.70;54.10;;;;;;5059052;28;20059;-83
2021/10/03 06:18:00;;;;;;;11.38;7.55;;;20.60;53.30;;;;;;5058572;28;20024;-83
2021/10/03 06:20:26;;;;;;;14.50;7.15;;;20.60;53.20;;;;;;5076666;28;20035;-83
2021/10/03 06:22:52;;;;;;;9.02;6.93;;;20.50;53.20;;;;;;5058298;28;20452;-82
2021/10/03 06:25:18;;;;;;;13.80;8.52;;;20.60;53.20;;;;;;5058864;28;20025;-83
2021/10/03 06:27:44;;;;;;;11.43;7.05;;;20.60;53.30;;;;;;5070968;28;20055;-83
2021/10/03 06:30:10;;;;;;;11.63;7.05;;;20.70;52.80;;;;;;5078638;28;20032;-84
2021/10/03 06:32:38;;;;;;;11.50;7.60;;;20.60;52.80;;;;;;5078670;28;20024;-83
2021/10/03 06:35:04;;;;;;;13.88;7.85;;;20.60;52.80;;;;;;5096651;28;20101;-83
2021/10/03 06:37:30;;;;;;;11.05;7.47;;;20.60;53.10;;;;;;5096088;28;20153;-83
2021/10/03 06:39:56;;;;;;;11.70;7.63;;;20.80;53.20;;;;;;5078524;28;20126;-82
2021/10/03 06:42:21;;;;;;;9.75;7.07;;;21.00;52.60;;;;;;5077756;28;20028;-82
2021/10/03 06:44:47;;;;;;;10.75;7.03;;;21.00;52.40;;;;;;5078159;28;20417;-83
2021/10/03 06:47:13;;;;;;;12.07;8.13;;;21.00;52.40;;;;;;5077780;28;20543;-81
2021/10/03 06:49:40;;;;;;;12.35;7.00;;;21.10;52.30;;;;;;5095819;28;20020;-82
2021/10/03 06:52:07;;;;;;;9.02;6.68;;;21.20;52.00;;;;;;5095889;28;20358;-83
2021/10/03 06:54:33;;;;;;;12.27;6.65;;;21.20;51.70;;;;;;5078403;28;20028;-82
2021/10/03 06:56:59;;;;;;;10.82;6.88;;;21.60;51.40;;;;;;5077338;28;20493;-82
2021/10/03 06:59:24;;;;;;;10.93;7.65;;;21.60;50.70;;;;;;5077405;28;20039;-82
2021/10/03 07:01:51;;;;;;;10.52;6.93;;;21.60;51.00;;;;;;5095672;28;20024;-83
2021/10/03 07:04:17;;;;;;;11.50;7.45;;;21.80;51.00;;;;;;5077620;28;20119;-82
2021/10/03 07:06:42;;;;;;;10.27;7.53;;;22.00;50.60;;;;;;5095764;28;20454;-83
2021/10/03 07:09:08;;;;;;;14.30;9.13;;;22.10;50.00;;;;;;5095852;28;20111;-82
2021/10/03 07:11:34;;;;;;;10.07;6.65;;;22.00;49.70;;;;;;5077694;28;20474;-82
2021/10/03 07:13:59;;;;;;;12.00;8.02;;;21.90;49.70;;;;;;5077822;28;20028;-82
2021/10/03 07:16:25;;;;;;;14.90;8.77;;;21.90;50.00;;;;;;5077273;28;20031;-81
2021/10/03 07:18:51;;;;;;;13.65;8.63;;;22.10;50.10;;;;;;5095849;28;20103;-82
2021/10/03 07:21:17;;;;;;;12.00;8.35;;;22.20;49.80;;;;;;5077277;28;20117;-81
2021/10/03 07:23:42;;;;;;;10.18;7.18;;;22.40;49.90;;;;;;5095362;28;20044;-81
2021/10/03 07:26:08;;;;;;;10.73;6.22;;;22.70;49.30;;;;;;5094599;28;20027;-81
2021/10/03 07:28:34;;;;;;;10.70;7.28;;;23.10;48.70;;;;;;5077454;28;20056;-82
2021/10/03 07:31:01;;;;;;;10.18;6.85;;;23.20;47.90;;;;;;5077189;28;20463;-81
2021/10/03 07:33:26;;;;;;;9.52;6.38;;;23.30;47.10;;;;;;5077033;28;20065;-80
2021/10/03 07:35:52;;;;;;;9.38;6.63;;;23.40;47.50;;;;;;5095230;28;20031;-81
2021/10/03 07:38:18;;;;;;;10.65;6.65;;;23.50;47.10;;;;;;5095329;28;20375;-80
2021/10/03 07:40:44;;;;;;;9.63;6.60;;;23.80;47.10;;;;;;5077027;28;20101;-82
2021/10/03 07:43:11;;;;;;;9.55;6.30;;;23.80;46.60;;;;;;5077144;28;20443;-81
2021/10/03 07:45:37;;;;;;;14.95;10.75;;;23.80;47.00;;;;;;5076768;28;20059;-81
2021/10/03 07:48:03;;;;;;;11.13;7.40;;;24.00;46.10;;;;;;5094932;28;20050;-81
2021/10/03 07:50:29;;;;;;;10.32;7.65;;;24.20;45.60;;;;;;5094156;28;20040;-81
2021/10/03 07:52:54;;;;;;;9.65;6.93;;;24.20;45.20;;;;;;5060826;28;20093;-82
2021/10/03 07:55:21;;;;;;;10.85;6.85;;;24.30;45.40;;;;;;5056755;28;20056;-82
2021/10/03 07:57:47;;;;;;;10.65;6.93;;;24.40;45.30;;;;;;5056611;28;20040;-82
2021/10/03 08:00:13;;;;;;;9.85;7.13;;;24.50;45.00;;;;;;5056658;28;20029;-82
2021/10/03 08:02:39;;;;;;;9.38;6.60;;;24.70;45.30;;;;;;5053848;28;20115;-83
2021/10/03 08:05:06;;;;;;;9.18;6.63;;;24.80;44.80;;;;;;5069421;28;20114;-81
2021/10/03 08:07:32;;;;;;;8.25;6.18;;;25.00;45.30;;;;;;5094818;28;20040;-81
2021/10/03 08:09:58;;;;;;;7.82;5.38;;;25.30;44.90;;;;;;5094710;28;20036;-82
2021/10/03 08:12:24;;;;;;;9.70;6.32;;;25.40;44.10;;;;;;5094774;28;20026;-82
2021/10/03 08:14:49;;;;;;;8.38;5.93;;;25.50;43.80;;;;;;5076243;28;20031;-82
2021/10/03 08:17:16;;;;;;;9.38;5.47;;;25.70;44.00;;;;;;5094527;28;20035;-82
2021/10/03 08:19:42;;;;;;;10.60;6.88;;;25.80;43.20;;;;;;5076256;28;20066;-82
2021/10/03 08:22:07;;;;;;;12.85;6.30;;;25.90;43.20;;;;;;5076317;28;20056;-82
2021/10/03 08:24:33;;;;;;;12.85;7.10;;;26.00;43.10;;;;;;5094509;28;20020;-82
2021/10/03 08:26:59;;;;;;;10.63;6.68;;;26.10;44.40;;;;;;5076089;28;20051;-82
2021/10/03 08:29:25;;;;;;;14.40;6.80;;;26.30;43.40;;;;;;5094252;28;20144;-83
2021/10/03 08:31:50;;;;;;;12.35;6.38;;;26.40;43.10;;;;;;5075966;28;20056;-82
2021/10/03 08:34:16;;;;;;;10.57;6.63;;;26.60;43.00;;;;;;5075036;28;20031;-83
2021/10/03 08:36:42;;;;;;;16.77;7.10;;;26.80;42.40;;;;;;5075907;28;20488;-83
2021/10/03 08:39:08;;;;;;;19.75;12.85;;;26.90;42.10;;;;;;5076089;28;20032;-82
2021/10/03 08:41:36;;;;;;;19.90;12.18;;;27.00;41.80;;;;;;5075845;28;20081;-83
2021/10/03 08:44:02;;;;;;;23.98;11.52;;;27.10;42.10;;;;;;5075957;28;20027;-82
2021/10/03 08:46:28;;;;;;;11.65;6.80;;;27.30;42.00;;;;;;5075819;28;20028;-82
2021/10/03 08:48:55;;;;;;;10.50;5.70;;;27.50;41.10;;;;;;5075467;28;20035;-83
2021/10/03 08:51:22;;;;;;;7.10;5.38;;;27.50;40.90;;;;;;5075824;28;20031;-82
2021/10/03 08:53:47;;;;;;;10.50;5.80;;;27.40;40.10;;;;;;5036383;28;20045;-81
2021/10/03 08:56:14;;;;;;;7.85;5.80;;;27.40;39.70;;;;;;5033923;28;20032;-81
2021/10/03 08:58:39;;;;;;;6.93;4.85;;;27.20;39.80;;;;;;5034318;28;20040;-69
2021/10/03 09:01:07;;;;;;;8.18;4.80;;;27.00;39.60;;;;;;5053073;28;20383;-79
2021/10/03 09:03:33;;;;;;;7.10;4.43;;;26.60;39.80;;;;;;5065905;28;20032;-80
2021/10/03 09:05:59;;;;;;;8.05;4.22;;;26.50;39.80;;;;;;5075133;28;20367;-80
2021/10/03 09:08:30;;;;;;;9.48;4.60;;;26.40;39.80;;;;;;5094148;28;20406;-81
2021/10/03 09:11:08;;;;;;;7.90;3.83;;;26.40;39.30;;;;;;5093737;28;20370;-80
2021/10/03 09:13:34;;;;;;;5.22;3.45;;;26.40;38.90;;;;;;5075637;28;20024;-82
2021/10/03 09:16:10;;;;;;;6.25;3.60;;;26.30;37.80;;;;;;5075611;28;20158;-81
2021/10/03 09:18:37;;;;;;;5.45;3.20;;;26.00;37.70;;;;;;5075508;28;20043;-81
2021/10/03 09:21:03;;;;;;;7.15;3.40;;;25.80;37.90;;;;;;5075561;28;20477;-82
2021/10/03 09:23:29;;;;;;;7.80;4.00;;;25.90;37.70;;;;;;5075032;28;20036;-82
2021/10/03 09:25:55;;;;;;;6.65;3.92;;;25.90;38.30;;;;;;5091114;28;20028;-83
2021/10/03 09:28:20;;;;;;;7.57;4.55;;;26.00;37.60;;;;;;5091794;28;20509;-82
2021/10/03 09:30:52;;;;;;;5.40;3.22;;;25.80;36.70;;;;;;5074351;28;20029;-82
2021/10/03 09:33:18;;;;;;;5.53;3.75;;;25.60;36.60;;;;;;5075403;28;20028;-83
2021/10/03 09:35:58;;;;;;;9.85;4.60;;;25.40;36.90;;;;;;5093316;28;20485;-82
2021/10/03 09:38:25;;;;;;;6.70;3.70;;;25.50;37.10;;;;;;5075624;28;20078;-83
2021/10/03 09:41:07;;;;;;;6.75;4.07;;;25.50;37.00;;;;;;5074974;28;20031;-83
2021/10/03 09:43:51;;;;;;;7.40;3.70;;;25.40;36.50;;;;;;5075343;28;20028;-82
2021/10/03 09:46:35;;;;;;;6.70;3.55;;;25.10;36.80;;;;;;5075164;28;20020;-83
2021/10/03 09:49:03;;;;;;;9.30;3.30;;;24.90;36.60;;;;;;5074963;28;20021;-82
2021/10/03 09:51:30;;;;;;;5.55;3.50;;;24.60;36.50;;;;;;5093360;28;20413;-82
2021/10/03 09:53:56;;;;;;;5.47;3.47;;;24.30;36.70;;;;;;5093612;28;20024;-78
2021/10/03 09:56:22;;;;;;;7.05;3.53;;;24.00;37.30;;;;;;5073941;28;20027;-84
2021/10/03 09:58:48;;;;;;;6.18;3.67;;;24.00;37.70;;;;;;5093336;28;20032;-82
2021/10/03 10:01:16;;;;;;;6.10;3.42;;;24.10;37.80;;;;;;5074486;28;20112;-79
2021/10/03 10:03:42;;;;;;;5.97;3.45;;;24.10;37.30;;;;;;5074555;28;20028;-82
2021/10/03 10:06:09;;;;;;;5.70;3.65;;;24.00;37.10;;;;;;5074820;28;20070;-82
2021/10/03 10:08:38;;;;;;;7.57;4.20;;;24.00;37.10;;;;;;5075058;28;20043;-84
2021/10/03 10:11:08;;;;;;;6.38;4.20;;;23.80;37.70;;;;;;5075019;28;20028;-82
2021/10/03 10:13:36;;;;;;;8.98;4.93;;;23.90;38.10;;;;;;5075034;28;20124;-85
2021/10/03 10:16:27;;;;;;;7.88;4.47;;;24.10;38.20;;;;;;5074813;28;20024;-81
2021/10/03 10:19:25;;;;;;;8.02;3.70;;;24.00;37.80;;;;;;5097016;28;20153;-82
2021/10/03 10:22:18;;;;;;;5.43;3.42;;;23.80;37.90;;;;;;5078688;28;20109;-82
2021/10/03 10:24:46;;;;;;;8.30;4.03;;;23.90;38.60;;;;;;5078442;28;20432;-82
2021/10/03 10:27:21;;;;;;;8.05;4.13;;;24.10;38.90;;;;;;5096870;28;20101;-82
2021/10/03 10:29:57;;;;;;;10.02;4.32;;;24.40;38.80;;;;;;5078607;28;20031;-83
2021/10/03 10:32:24;;;;;;;17.63;10.63;;;24.70;39.70;;;;;;5077498;28;20035;-82
2021/10/03 10:35:11;;;;;;;16.73;10.10;;;25.10;38.50;;;;;;5078333;28;20031;-82
2021/10/03 10:37:49;;;;;;;10.25;6.00;;;25.20;38.70;;;;;;5078211;28;20031;-80
2021/10/03 10:40:24;;;;;;;14.18;5.90;;;25.30;38.30;;;;;;5078206;28;20043;-78
2021/10/03 10:42:55;;;;;;;8.45;5.80;;;25.30;37.90;;;;;;5078153;28;20031;-83
2021/10/03 10:45:27;;;;;;;19.90;12.90;;;25.20;38.50;;;;;;5078144;28;20375;-82
2021/10/03 10:48:11;;;;;;;19.67;11.27;;;25.30;39.10;;;;;;5078028;28;20024;-82
2021/10/03 10:50:49;;;;;;;8.25;4.65;;;25.30;39.50;;;;;;5078102;28;20064;-84
2021/10/03 10:53:27;;;;;;;9.07;5.30;;;25.30;39.00;;;;;;5078080;28;20475;-85
2021/10/03 10:56:30;;;;;;;7.18;4.45;;;25.20;38.90;;;;;;5066371;28;20356;-82
2021/10/03 10:58:59;;;;;;;7.57;4.32;;;25.10;38.80;;;;;;5058231;28;20087;-82
2021/10/03 11:01:30;;;;;;;7.25;3.72;;;24.90;38.60;;;;;;5058004;28;20387;-82
2021/10/03 11:04:00;;;;;;;5.55;3.58;;;24.70;37.70;;;;;;5075728;28;20463;-81
2021/10/03 11:06:32;;;;;;;6.15;3.83;;;24.30;37.20;;;;;;5057173;28;20049;-82
2021/10/03 11:08:58;;;;;;;6.43;3.92;;;24.00;37.50;;;;;;5057682;28;20487;-82
2021/10/03 11:11:25;;;;;;;5.68;3.47;;;23.80;38.00;;;;;;5057511;28;20043;-79
2021/10/03 11:13:56;;;;;;;6.72;3.22;;;23.50;38.50;;;;;;5057625;28;20029;-81
2021/10/03 11:16:32;;;;;;;4.55;3.05;;;23.30;39.10;;;;;;5057376;28;20074;-81
2021/10/03 11:19:05;;;;;;;6.90;3.53;;;23.10;39.50;;;;;;5058026;28;20441;-82
2021/10/03 11:21:33;;;;;;;6.82;3.60;;;23.00;40.40;;;;;;5057516;28;20036;-82
2021/10/03 11:24:02;;;;;;;7.43;4.30;;;22.90;41.00;;;;;;5057480;28;20021;-83
2021/10/03 11:26:42;;;;;;;6.72;3.92;;;23.10;41.70;;;;;;5057406;28;20081;-82
2021/10/03 11:29:08;;;;;;;5.82;3.80;;;23.20;41.60;;;;;;5075167;28;20103;-81
2021/10/03 11:31:38;;;;;;;8.68;3.58;;;23.20;41.20;;;;;;5057264;28;20119;-84
2021/10/03 11:34:06;;;;;;;9.00;4.20;;;23.30;41.00;;;;;;5075451;28;20025;-81
2021/10/03 11:36:32;;;;;;;12.07;4.00;;;23.00;41.30;;;;;;5075119;28;20033;-81
2021/10/03 11:38:59;;;;;;;9.50;4.25;;;22.80;41.60;;;;;;5056738;28;20028;-81
2021/10/03 11:41:26;;;;;;;7.03;4.05;;;22.70;41.80;;;;;;5056655;28;20032;-81
2021/10/03 11:43:53;;;;;;;6.93;4.40;;;22.50;41.80;;;;;;5075401;28;20090;-82
2021/10/03 11:46:18;;;;;;;8.45;4.10;;;22.50;42.20;;;;;;5057480;28;20494;-82
2021/10/03 11:48:51;;;;;;;7.28;4.28;;;22.40;42.00;;;;;;5056870;28;20123;-81
2021/10/03 11:51:17;;;;;;;6.68;4.32;;;22.30;42.10;;;;;;5057102;28;20118;-82
2021/10/03 11:53:49;;;;;;;6.57;4.28;;;22.20;42.00;;;;;;5063025;28;20489;-82
2021/10/03 11:56:17;;;;;;;7.85;5.40;;;22.20;42.20;;;;;;5094683;28;20043;-81
2021/10/03 11:58:44;;;;;;;8.65;6.20;;;22.10;41.50;;;;;;5077082;28;20028;-82
2021/10/03 12:01:11;;;;;;;6.65;4.68;;;21.90;40.30;;;;;;5076648;28;20024;-82
2021/10/03 12:03:47;;;;;;;8.55;4.95;;;21.50;39.40;;;;;;5076484;28;20024;-83
2021/10/03 12:06:19;;;;;;;9.10;5.35;;;21.10;40.00;;;;;;5094579;28;20032;-82
2021/10/03 12:08:48;;;;;;;10.02;6.03;;;20.80;40.80;;;;;;5094533;28;20067;-80
2021/10/03 12:11:15;;;;;;;10.77;5.30;;;20.60;40.90;;;;;;5094741;28;20469;-83
2021/10/03 12:13:54;;;;;;;8.88;4.82;;;20.50;40.80;;;;;;5094442;28;20021;-81
2021/10/03 12:16:20;;;;;;;7.22;4.90;;;20.30;41.90;;;;;;5094729;28;20035;-81
2021/10/03 12:18:59;;;;;;;8.50;5.32;;;20.00;42.40;;;;;;5076283;28;20028;-80
2021/10/03 12:21:24;;;;;;;6.78;4.68;;;19.70;42.60;;;;;;5076570;28;20051;-82
2021/10/03 12:24:01;;;;;;;9.32;5.53;;;19.40;42.20;;;;;;5075642;28;20024;-81
2021/10/03 12:26:30;;;;;;;8.25;5.80;;;19.00;42.90;;;;;;5094561;28;20039;-81
2021/10/03 12:29:06;;;;;;;7.43;5.75;;;18.70;43.30;;;;;;5075878;28;20112;-81
2021/10/03 12:31:51;;;;;;;7.15;5.90;;;18.40;43.30;;;;;;5075754;28;20035;-82
2021/10/03 12:34:16;;;;;;;11.07;6.35;;;18.10;43.60;;;;;;5076513;28;20024;-82
2021/10/03 12:36:54;;;;;;;10.50;6.53;;;17.90;44.20;;;;;;5076265;28;20492;-82
2021/10/03 12:39:21;;;;;;;11.05;5.95;;;17.60;45.00;;;;;;5093547;28;20050;-81
2021/10/03 12:41:48;;;;;;;12.00;7.25;;;17.40;45.40;;;;;;5067756;28;20025;-82